createdAt,value
2023-12-30T00:00:19.047Z,19.08
2023-12-30T00:01:16.440Z,19.08
2023-12-30T00:02:16.333Z,19.08
2023-12-30T00:03:16.373Z,19.07
2023-12-30T00:04:16.358Z,19.08
2023-12-30T00:05:16.332Z,19.07
2023-12-30T00:06:16.346Z,19.07
2023-12-30T00:07:16.355Z,19.07
2023-12-30T00:08:16.262Z,19.07
2023-12-30T00:09:16.246Z,19.07
2023-12-30T00:10:16.237Z,19.04
2023-12-30T00:11:16.251Z,19.07
2023-12-30T00:12:16.238Z,19.07
2023-12-30T00:13:16.290Z,19.07
2023-12-30T00:14:16.191Z,19.02
2023-12-30T00:15:16.182Z,19.04
2023-12-30T00:16:16.231Z,19.04
2023-12-30T00:17:16.161Z,19.04
2023-12-30T00:18:16.304Z,19.04
2023-12-30T00:19:16.258Z,19.02
2023-12-30T00:20:16.176Z,19.04
2023-12-30T00:21:16.168Z,19.04
2023-12-30T00:22:16.119Z,19.02
2023-12-30T00:23:16.094Z,19.02
2023-12-30T00:24:16.081Z,19.04
2023-12-30T00:25:16.087Z,19.02
2023-12-30T00:26:16.068Z,19.02
2023-12-30T00:27:16.076Z,19.02
2023-12-30T00:28:16.045Z,19.00
2023-12-30T00:29:16.027Z,19.02
2023-12-30T00:30:16.166Z,19.04
2023-12-30T00:31:16.055Z,19.00
2023-12-30T00:32:15.991Z,19.02
2023-12-30T00:33:16.043Z,19.02
2023-12-30T00:34:16.073Z,19.00
2023-12-30T00:35:15.968Z,19.02
2023-12-30T00:36:15.950Z,19.02
2023-12-30T00:37:15.978Z,19.02
2023-12-30T00:38:21.370Z,19.00
2023-12-30T00:39:16.939Z,19.00
2023-12-30T00:40:23.971Z,19.00
2023-12-30T00:41:16.895Z,19.00
2023-12-30T00:42:15.888Z,19.00
2023-12-30T00:43:15.897Z,18.99
2023-12-30T00:44:15.890Z,19.00
2023-12-30T00:45:15.853Z,18.99
2023-12-30T00:46:15.926Z,19.00
2023-12-30T00:47:15.872Z,18.99
2023-12-30T00:48:15.895Z,18.99
2023-12-30T00:49:15.932Z,18.99
2023-12-30T00:50:15.809Z,18.99
2023-12-30T00:51:15.788Z,19.00
2023-12-30T00:52:15.801Z,18.99
2023-12-30T00:53:15.824Z,19.00
2023-12-30T00:54:15.753Z,18.99
2023-12-30T00:55:15.790Z,18.98
2023-12-30T00:56:15.730Z,18.99
2023-12-30T00:57:15.744Z,18.99
2023-12-30T00:58:15.764Z,18.99
2023-12-30T00:59:15.717Z,18.99
2023-12-30T01:00:15.687Z,18.99
2023-12-30T01:01:15.784Z,18.99
2023-12-30T01:02:15.668Z,18.99
2023-12-30T01:03:15.695Z,18.99
2023-12-30T01:04:15.762Z,18.99
2023-12-30T01:05:15.658Z,18.99
2023-12-30T01:06:15.629Z,18.98
2023-12-30T01:07:15.669Z,18.98
2023-12-30T01:08:15.660Z,18.99
2023-12-30T01:09:15.632Z,18.98
2023-12-30T01:10:15.645Z,18.98
2023-12-30T01:11:15.564Z,18.98
2023-12-30T01:12:15.553Z,18.99
2023-12-30T01:13:15.565Z,18.99
2023-12-30T01:14:15.558Z,18.98
2023-12-30T01:15:15.519Z,18.98
2023-12-30T01:16:15.554Z,18.98
2023-12-30T01:17:15.532Z,18.98
2023-12-30T01:18:15.518Z,18.96
2023-12-30T01:19:15.602Z,18.96
2023-12-30T01:20:15.471Z,18.96
2023-12-30T01:21:15.464Z,18.98
2023-12-30T01:22:15.474Z,18.96
2023-12-30T01:23:15.637Z,18.96
2023-12-30T01:24:15.411Z,18.98
2023-12-30T01:25:15.488Z,18.98
2023-12-30T01:26:15.399Z,18.96
2023-12-30T01:27:15.379Z,18.96
2023-12-30T01:28:15.437Z,18.95
2023-12-30T01:29:15.391Z,18.96
2023-12-30T01:30:15.500Z,18.96
2023-12-30T01:31:15.417Z,18.96
2023-12-30T01:32:15.322Z,18.96
2023-12-30T01:33:15.401Z,18.96
2023-12-30T01:34:15.483Z,18.96
2023-12-30T01:35:15.292Z,18.96
2023-12-30T01:36:15.295Z,18.96
2023-12-30T01:37:15.291Z,18.96
2023-12-30T01:38:15.281Z,18.95
2023-12-30T01:39:15.272Z,18.96
2023-12-30T01:40:15.280Z,18.96
2023-12-30T01:41:15.274Z,18.96
2023-12-30T01:42:15.219Z,18.96
2023-12-30T01:43:15.235Z,18.96
2023-12-30T01:44:15.196Z,18.95
2023-12-30T01:45:15.187Z,18.95
2023-12-30T01:46:15.242Z,18.95
2023-12-30T01:47:15.203Z,18.95
2023-12-30T01:48:15.224Z,18.96
2023-12-30T01:49:15.178Z,18.95
2023-12-30T01:50:15.151Z,18.95
2023-12-30T01:51:24.545Z,18.95
2023-12-30T01:52:16.184Z,18.95
2023-12-30T01:53:15.154Z,18.96
2023-12-30T01:54:15.091Z,18.95
2023-12-30T01:55:15.197Z,18.96
2023-12-30T01:56:15.068Z,18.95
2023-12-30T01:57:15.107Z,18.95
2023-12-30T01:58:15.081Z,18.93
2023-12-30T01:59:15.104Z,18.93
2023-12-30T02:00:15.021Z,18.95
2023-12-30T02:01:15.079Z,18.96
2023-12-30T02:02:15.111Z,18.95
2023-12-30T02:03:15.014Z,18.95
2023-12-30T02:04:14.987Z,18.93
2023-12-30T02:05:16.689Z,18.93
2023-12-30T02:06:14.979Z,18.95
2023-12-30T02:07:14.950Z,18.95
2023-12-30T02:08:14.934Z,18.95
2023-12-30T02:09:14.927Z,18.93
2023-12-30T02:10:15.127Z,18.95
2023-12-30T02:11:14.931Z,18.93
2023-12-30T02:12:14.888Z,18.95
2023-12-30T02:13:14.937Z,18.93
2023-12-30T02:14:14.863Z,18.93
2023-12-30T02:15:14.855Z,18.95
2023-12-30T02:16:14.898Z,18.95
2023-12-30T02:17:14.859Z,18.95
2023-12-30T02:18:14.934Z,18.95
2023-12-30T02:19:14.877Z,18.92
2023-12-30T02:20:14.809Z,18.92
2023-12-30T02:21:14.800Z,18.96
2023-12-30T02:22:14.831Z,18.93
2023-12-30T02:23:14.801Z,18.95
2023-12-30T02:24:14.752Z,18.93
2023-12-30T02:25:14.884Z,18.93
2023-12-30T02:26:14.731Z,18.93
2023-12-30T02:27:14.760Z,18.93
2023-12-30T02:28:14.748Z,18.93
2023-12-30T02:29:14.736Z,18.93
2023-12-30T02:30:14.779Z,18.93
2023-12-30T02:31:14.795Z,18.93
2023-12-30T02:32:14.686Z,18.93
2023-12-30T02:33:14.735Z,18.92
2023-12-30T02:34:14.765Z,18.93
2023-12-30T02:35:14.667Z,18.92
2023-12-30T02:36:14.621Z,18.92
2023-12-30T02:37:14.669Z,18.92
2023-12-30T02:38:14.617Z,18.93
2023-12-30T02:39:14.595Z,18.93
2023-12-30T02:40:14.651Z,18.93
2023-12-30T02:41:14.599Z,18.93
2023-12-30T02:42:14.577Z,18.92
2023-12-30T02:43:14.637Z,18.92
2023-12-30T02:44:14.537Z,18.92
2023-12-30T02:45:14.574Z,18.92
2023-12-30T02:46:14.542Z,18.92
2023-12-30T02:47:14.529Z,18.93
2023-12-30T02:48:14.661Z,18.93
2023-12-30T02:49:14.555Z,18.92
2023-12-30T02:50:14.472Z,18.92
2023-12-30T02:51:14.481Z,18.92
2023-12-30T02:52:14.598Z,18.92
2023-12-30T02:53:14.433Z,18.93
2023-12-30T02:54:14.445Z,18.93
2023-12-30T02:55:14.492Z,18.92
2023-12-30T02:56:14.424Z,18.93
2023-12-30T02:57:14.398Z,18.92
2023-12-30T02:58:14.436Z,18.93
2023-12-30T02:59:14.367Z,18.93
2023-12-30T03:00:14.357Z,18.92
2023-12-30T03:01:14.482Z,18.93
2023-12-30T03:02:14.333Z,18.92
2023-12-30T03:03:14.367Z,18.93
2023-12-30T03:04:14.393Z,18.95
2023-12-30T03:05:14.564Z,18.95
2023-12-30T03:06:14.435Z,18.95
2023-12-30T03:07:14.328Z,18.93
2023-12-30T03:08:14.297Z,18.95
2023-12-30T03:09:14.273Z,18.93
2023-12-30T03:10:14.321Z,18.93
2023-12-30T03:11:14.347Z,18.96
2023-12-30T03:12:14.230Z,18.95
2023-12-30T03:13:14.318Z,18.95
2023-12-30T03:14:14.234Z,18.95
2023-12-30T03:15:14.188Z,18.93
2023-12-30T03:16:14.212Z,18.95
2023-12-30T03:17:14.207Z,18.95
2023-12-30T03:18:14.262Z,18.93
2023-12-30T03:19:14.219Z,18.95
2023-12-30T03:20:14.150Z,18.95
2023-12-30T03:21:14.167Z,18.95
2023-12-30T03:22:14.160Z,18.95
2023-12-30T03:23:14.137Z,18.95
2023-12-30T03:24:14.118Z,18.95
2023-12-30T03:25:14.143Z,18.96
2023-12-30T03:26:14.090Z,18.96
2023-12-30T03:27:14.069Z,18.96
2023-12-30T03:28:14.091Z,18.96
2023-12-30T03:29:14.065Z,18.93
2023-12-30T03:30:14.068Z,18.96
2023-12-30T03:31:14.070Z,18.95
2023-12-30T03:32:14.037Z,18.95
2023-12-30T03:33:14.132Z,18.95
2023-12-30T03:34:14.066Z,18.96
2023-12-30T03:35:13.996Z,18.96
2023-12-30T03:36:13.969Z,18.96
2023-12-30T03:37:13.985Z,18.95
2023-12-30T03:38:13.954Z,18.95
2023-12-30T03:39:13.930Z,18.95
2023-12-30T03:40:14.002Z,18.98
2023-12-30T03:41:13.934Z,18.96
2023-12-30T03:42:13.903Z,18.95
2023-12-30T03:43:13.918Z,18.95
2023-12-30T03:44:13.871Z,18.96
2023-12-30T03:45:13.876Z,18.95
2023-12-30T03:46:13.919Z,18.96
2023-12-30T03:47:13.841Z,18.95
2023-12-30T03:48:13.945Z,18.95
2023-12-30T03:49:13.925Z,18.96
2023-12-30T03:50:13.907Z,18.96
2023-12-30T03:51:13.837Z,18.96
2023-12-30T03:52:13.797Z,18.95
2023-12-30T03:53:13.804Z,18.95
2023-12-30T03:54:13.782Z,18.96
2023-12-30T03:55:13.838Z,18.95
2023-12-30T03:56:13.750Z,18.95
2023-12-30T03:57:13.734Z,18.95
2023-12-30T03:58:13.745Z,18.95
2023-12-30T03:59:13.741Z,18.95
2023-12-30T04:00:13.721Z,18.95
2023-12-30T04:01:13.886Z,18.95
2023-12-30T04:02:13.676Z,18.95
2023-12-30T04:03:13.711Z,18.96
2023-12-30T04:04:13.724Z,18.95
2023-12-30T04:05:13.772Z,18.95
2023-12-30T04:06:13.631Z,18.95
2023-12-30T04:07:13.647Z,18.93
2023-12-30T04:08:13.604Z,18.95
2023-12-30T04:09:13.635Z,18.95
2023-12-30T04:10:13.635Z,18.93
2023-12-30T04:11:13.676Z,18.93
2023-12-30T04:12:13.577Z,18.93
2023-12-30T04:13:13.605Z,18.95
2023-12-30T04:14:13.576Z,18.93
2023-12-30T04:15:13.550Z,18.95
2023-12-30T04:16:13.626Z,18.95
2023-12-30T04:17:13.507Z,18.92
2023-12-30T04:18:13.556Z,18.93
2023-12-30T04:19:13.590Z,18.93
2023-12-30T04:20:13.473Z,18.93
2023-12-30T04:21:13.492Z,18.93
2023-12-30T04:22:13.475Z,18.93
2023-12-30T04:23:13.458Z,18.93
2023-12-30T04:24:13.463Z,18.93
2023-12-30T04:25:13.462Z,18.92
2023-12-30T04:26:13.430Z,18.92
2023-12-30T04:27:13.399Z,18.95
2023-12-30T04:28:13.427Z,18.93
2023-12-30T04:29:13.382Z,18.93
2023-12-30T04:30:13.396Z,18.92
2023-12-30T04:31:13.416Z,18.92
2023-12-30T04:32:13.360Z,18.92
2023-12-30T04:33:13.466Z,18.93
2023-12-30T04:34:13.421Z,18.93
2023-12-30T04:35:13.347Z,18.92
2023-12-30T04:36:13.308Z,18.93
2023-12-30T04:37:13.338Z,18.93
2023-12-30T04:38:13.284Z,18.92
2023-12-30T04:39:13.266Z,18.92
2023-12-30T04:40:13.281Z,18.92
2023-12-30T04:41:13.270Z,18.92
2023-12-30T04:42:13.228Z,18.92
2023-12-30T04:43:13.258Z,18.92
2023-12-30T04:44:13.227Z,18.92
2023-12-30T04:45:13.208Z,18.92
2023-12-30T04:46:13.245Z,18.93
2023-12-30T04:47:13.171Z,18.90
2023-12-30T04:48:13.211Z,18.92
2023-12-30T04:49:13.222Z,18.92
2023-12-30T04:50:13.146Z,18.92
2023-12-30T04:51:13.164Z,18.92
2023-12-30T04:52:13.154Z,18.92
2023-12-30T04:53:13.130Z,18.92
2023-12-30T04:54:13.100Z,18.92
2023-12-30T04:55:13.101Z,18.92
2023-12-30T04:56:13.106Z,18.92
2023-12-30T04:57:13.077Z,18.90
2023-12-30T04:58:13.101Z,18.90
2023-12-30T04:59:13.062Z,18.90
2023-12-30T05:00:13.054Z,18.90
2023-12-30T05:01:13.087Z,18.90
2023-12-30T05:02:13.019Z,18.90
2023-12-30T05:03:13.110Z,18.90
2023-12-30T05:04:13.016Z,18.89
2023-12-30T05:05:13.001Z,18.90
2023-12-30T05:06:12.972Z,18.90
2023-12-30T05:07:12.989Z,18.90
2023-12-30T05:08:12.968Z,18.92
2023-12-30T05:09:12.956Z,18.90
2023-12-30T05:10:12.934Z,18.92
2023-12-30T05:11:12.939Z,18.92
2023-12-30T05:12:12.901Z,18.90
2023-12-30T05:13:12.955Z,18.89
2023-12-30T05:14:12.871Z,18.92
2023-12-30T05:15:12.868Z,18.90
2023-12-30T05:16:12.904Z,18.92
2023-12-30T05:17:12.856Z,18.89
2023-12-30T05:18:12.924Z,18.90
2023-12-30T05:19:12.917Z,18.90
2023-12-30T05:20:12.804Z,18.89
2023-12-30T05:21:12.833Z,18.90
2023-12-30T05:22:12.823Z,18.90
2023-12-30T05:23:12.776Z,18.90
2023-12-30T05:24:12.765Z,18.90
2023-12-30T05:25:12.811Z,18.89
2023-12-30T05:26:12.738Z,18.90
2023-12-30T05:27:12.751Z,18.90
2023-12-30T05:28:12.788Z,18.89
2023-12-30T05:29:12.714Z,18.90
2023-12-30T05:30:12.803Z,18.90
2023-12-30T05:31:12.844Z,18.92
2023-12-30T05:32:12.670Z,18.89
2023-12-30T05:33:12.745Z,18.89
2023-12-30T05:34:12.824Z,18.89
2023-12-30T05:35:12.668Z,18.90
2023-12-30T05:36:12.636Z,18.90
2023-12-30T05:37:12.730Z,18.89
2023-12-30T05:38:12.602Z,18.88
2023-12-30T05:39:12.608Z,18.88
2023-12-30T05:40:12.601Z,18.90
2023-12-30T05:41:12.628Z,18.90
2023-12-30T05:42:12.602Z,18.90
2023-12-30T05:43:12.595Z,18.88
2023-12-30T05:44:12.541Z,18.89
2023-12-30T05:45:12.531Z,18.90
2023-12-30T05:46:12.583Z,18.90
2023-12-30T05:47:12.549Z,18.90
2023-12-30T05:48:12.619Z,18.89
2023-12-30T05:49:12.598Z,18.89
2023-12-30T05:50:12.474Z,18.89
2023-12-30T05:51:12.571Z,18.90
2023-12-30T05:52:12.556Z,18.89
2023-12-30T05:53:12.562Z,18.89
2023-12-30T05:54:12.444Z,18.90
2023-12-30T05:55:12.444Z,18.90
2023-12-30T05:56:12.410Z,18.89
2023-12-30T05:57:12.440Z,18.88
2023-12-30T05:58:12.458Z,18.89
2023-12-30T05:59:12.377Z,18.90
2023-12-30T06:00:12.362Z,18.89
2023-12-30T06:01:12.407Z,18.89
2023-12-30T06:02:12.401Z,18.89
2023-12-30T06:03:12.376Z,18.89
2023-12-30T06:04:12.359Z,18.89
2023-12-30T06:05:12.302Z,18.89
2023-12-30T06:06:12.344Z,18.89
2023-12-30T06:07:12.355Z,18.89
2023-12-30T06:08:12.267Z,18.90
2023-12-30T06:09:12.257Z,18.90
2023-12-30T06:10:12.301Z,18.89
2023-12-30T06:11:12.245Z,18.88
2023-12-30T06:12:12.286Z,18.89
2023-12-30T06:13:12.318Z,18.90
2023-12-30T06:14:12.203Z,18.90
2023-12-30T06:15:12.190Z,18.89
2023-12-30T06:16:12.225Z,18.90
2023-12-30T06:17:12.171Z,18.90
2023-12-30T06:18:12.276Z,18.89
2023-12-30T06:19:13.950Z,18.89
2023-12-30T06:20:12.139Z,18.89
2023-12-30T06:21:12.137Z,18.90
2023-12-30T06:22:12.179Z,18.90
2023-12-30T06:23:12.105Z,18.90
2023-12-30T06:24:12.121Z,18.89
2023-12-30T06:25:12.107Z,18.90
2023-12-30T06:26:12.070Z,18.90
2023-12-30T06:27:12.061Z,18.89
2023-12-30T06:28:12.114Z,18.90
2023-12-30T06:29:12.137Z,18.90
2023-12-30T06:30:12.087Z,18.92
2023-12-30T06:31:12.097Z,18.89
2023-12-30T06:32:12.027Z,18.89
2023-12-30T06:33:12.162Z,18.90
2023-12-30T06:34:12.123Z,18.90
2023-12-30T06:35:11.998Z,18.89
2023-12-30T06:36:11.967Z,18.92
2023-12-30T06:37:11.965Z,18.90
2023-12-30T06:38:11.954Z,18.92
2023-12-30T06:39:11.956Z,18.89
2023-12-30T06:40:12.002Z,18.90
2023-12-30T06:41:11.905Z,18.90
2023-12-30T06:42:11.895Z,18.90
2023-12-30T06:43:11.948Z,18.89
2023-12-30T06:44:11.904Z,18.90
2023-12-30T06:45:11.887Z,18.90
2023-12-30T06:46:11.880Z,18.90
2023-12-30T06:47:11.874Z,18.92
2023-12-30T06:48:11.933Z,18.90
2023-12-30T06:49:11.909Z,18.90
2023-12-30T06:50:11.806Z,18.92
2023-12-30T06:51:11.797Z,18.90
2023-12-30T06:52:11.845Z,18.90
2023-12-30T06:53:11.773Z,18.90
2023-12-30T06:54:11.761Z,18.90
2023-12-30T06:55:18.803Z,18.90
2023-12-30T06:56:12.812Z,18.90
2023-12-30T06:57:11.728Z,18.92
2023-12-30T06:58:11.787Z,18.92
2023-12-30T06:59:12.971Z,18.90
2023-12-30T07:00:11.720Z,18.92
2023-12-30T07:01:11.781Z,18.90
2023-12-30T07:02:11.678Z,18.90
2023-12-30T07:03:11.734Z,18.90
2023-12-30T07:04:11.740Z,18.92
2023-12-30T07:05:11.711Z,18.92
2023-12-30T07:06:11.637Z,18.92
2023-12-30T07:07:11.654Z,18.90
2023-12-30T07:08:11.651Z,18.90
2023-12-30T07:09:11.598Z,18.90
2023-12-30T07:10:11.646Z,18.92
2023-12-30T07:11:11.584Z,18.92
2023-12-30T07:12:11.569Z,18.92
2023-12-30T07:13:11.583Z,18.92
2023-12-30T07:14:11.603Z,18.92
2023-12-30T07:15:11.592Z,18.92
2023-12-30T07:16:11.529Z,18.92
2023-12-30T07:17:11.537Z,18.92
2023-12-30T07:18:11.703Z,18.92
2023-12-30T07:19:11.672Z,18.92
2023-12-30T07:20:11.506Z,18.92
2023-12-30T07:21:11.483Z,18.92
2023-12-30T07:22:11.465Z,18.92
2023-12-30T07:23:11.465Z,18.92
2023-12-30T07:24:11.435Z,18.93
2023-12-30T07:25:11.499Z,18.92
2023-12-30T07:26:11.424Z,18.92
2023-12-30T07:27:11.408Z,18.92
2023-12-30T07:28:11.397Z,18.93
2023-12-30T07:29:11.382Z,18.90
2023-12-30T07:30:11.493Z,18.92
2023-12-30T07:31:11.446Z,18.92
2023-12-30T07:32:11.379Z,18.92
2023-12-30T07:33:11.506Z,18.92
2023-12-30T07:34:11.381Z,18.93
2023-12-30T07:35:11.341Z,18.92
2023-12-30T07:36:11.303Z,18.95
2023-12-30T07:37:11.369Z,18.92
2023-12-30T07:38:11.371Z,18.92
2023-12-30T07:39:11.266Z,18.93
2023-12-30T07:40:11.322Z,18.92
2023-12-30T07:41:11.241Z,18.93
2023-12-30T07:42:11.263Z,18.92
2023-12-30T07:43:11.267Z,18.92
2023-12-30T07:44:11.208Z,18.92
2023-12-30T07:45:11.199Z,18.93
2023-12-30T07:46:11.295Z,18.93
2023-12-30T07:47:11.177Z,18.93
2023-12-30T07:48:11.294Z,18.93
2023-12-30T07:49:11.339Z,18.93
2023-12-30T07:50:11.204Z,18.93
2023-12-30T07:51:11.140Z,18.93
2023-12-30T07:52:11.175Z,18.95
2023-12-30T07:53:11.110Z,18.93
2023-12-30T07:54:11.099Z,18.93
2023-12-30T07:55:11.117Z,18.92
2023-12-30T07:56:11.154Z,18.95
2023-12-30T07:57:11.069Z,18.92
2023-12-30T07:58:11.072Z,18.93
2023-12-30T07:59:11.045Z,18.93
2023-12-30T08:00:11.104Z,18.93
2023-12-30T08:01:11.102Z,18.93
2023-12-30T08:02:11.027Z,18.93
2023-12-30T08:03:11.037Z,18.95
2023-12-30T08:04:11.144Z,18.95
2023-12-30T08:05:11.075Z,18.93
2023-12-30T08:06:10.971Z,18.95
2023-12-30T08:07:10.988Z,18.93
2023-12-30T08:08:10.947Z,18.93
2023-12-30T08:09:10.946Z,18.93
2023-12-30T08:10:10.963Z,18.95
2023-12-30T08:11:10.940Z,18.92
2023-12-30T08:12:10.903Z,18.93
2023-12-30T08:13:10.928Z,18.95
2023-12-30T08:14:10.876Z,18.95
2023-12-30T08:15:10.868Z,18.93
2023-12-30T08:16:10.916Z,18.95
2023-12-30T08:17:10.896Z,18.93
2023-12-30T08:18:10.899Z,18.95
2023-12-30T08:19:10.852Z,18.93
2023-12-30T08:20:10.815Z,18.95
2023-12-30T08:21:10.869Z,18.95
2023-12-30T08:22:10.846Z,18.95
2023-12-30T08:23:10.783Z,18.93
2023-12-30T08:24:10.770Z,18.93
2023-12-30T08:25:10.803Z,18.93
2023-12-30T08:26:10.777Z,18.95
2023-12-30T08:27:10.734Z,18.95
2023-12-30T08:28:10.746Z,18.95
2023-12-30T08:29:10.863Z,18.95
2023-12-30T08:30:10.716Z,18.95
2023-12-30T08:31:10.870Z,18.95
2023-12-30T08:32:10.682Z,18.96
2023-12-30T08:33:10.711Z,18.95
2023-12-30T08:34:10.725Z,18.95
2023-12-30T08:35:10.653Z,18.95
2023-12-30T08:36:10.631Z,18.96
2023-12-30T08:37:10.846Z,18.95
2023-12-30T08:38:10.609Z,18.95
2023-12-30T08:39:10.599Z,18.95
2023-12-30T08:40:10.670Z,18.95
2023-12-30T08:41:10.615Z,18.93
2023-12-30T08:42:10.578Z,18.95
2023-12-30T08:43:10.570Z,18.95
2023-12-30T08:44:10.563Z,18.95
2023-12-30T08:45:10.560Z,18.95
2023-12-30T08:46:10.605Z,18.96
2023-12-30T08:47:10.692Z,18.93
2023-12-30T08:48:10.554Z,18.96
2023-12-30T08:49:11.245Z,18.95
2023-12-30T08:50:10.535Z,18.96
2023-12-30T08:51:10.466Z,18.95
2023-12-30T08:52:10.506Z,18.95
2023-12-30T08:53:10.468Z,18.95
2023-12-30T08:54:10.481Z,18.95
2023-12-30T08:55:10.461Z,18.95
2023-12-30T08:56:10.427Z,18.96
2023-12-30T08:57:10.400Z,18.96
2023-12-30T08:58:10.460Z,18.95
2023-12-30T08:59:10.380Z,18.96
2023-12-30T09:00:10.412Z,18.95
2023-12-30T09:01:10.604Z,18.95
2023-12-30T09:02:10.351Z,18.95
2023-12-30T09:03:10.349Z,18.96
2023-12-30T09:04:10.564Z,18.95
2023-12-30T09:05:10.318Z,18.96
2023-12-30T09:06:10.417Z,18.96
2023-12-30T09:07:10.368Z,18.96
2023-12-30T09:08:10.286Z,18.96
2023-12-30T09:09:10.290Z,18.96
2023-12-30T09:10:10.286Z,18.96
2023-12-30T09:11:10.283Z,18.96
2023-12-30T09:12:10.235Z,18.95
2023-12-30T09:13:10.267Z,18.96
2023-12-30T09:14:10.215Z,18.96
2023-12-30T09:15:10.202Z,18.95
2023-12-30T09:16:10.189Z,18.96
2023-12-30T09:17:10.221Z,18.96
2023-12-30T09:18:13.840Z,18.98
2023-12-30T09:19:10.308Z,18.95
2023-12-30T09:20:10.254Z,18.96
2023-12-30T09:21:10.140Z,18.96
2023-12-30T09:22:10.174Z,18.96
2023-12-30T09:23:10.120Z,18.96
2023-12-30T09:24:10.144Z,18.96
2023-12-30T09:25:10.143Z,18.96
2023-12-30T09:26:10.105Z,18.98
2023-12-30T09:27:10.077Z,18.95
2023-12-30T09:28:10.089Z,18.98
2023-12-30T09:29:10.081Z,18.96
2023-12-30T09:30:10.076Z,18.96
2023-12-30T09:31:10.135Z,18.96
2023-12-30T09:32:10.020Z,18.96
2023-12-30T09:33:12.210Z,18.95
2023-12-30T09:34:10.107Z,18.96
2023-12-30T09:35:10.078Z,18.98
2023-12-30T09:36:09.977Z,18.96
2023-12-30T09:37:10.033Z,18.95
2023-12-30T09:38:09.949Z,18.96
2023-12-30T09:39:09.943Z,18.96
2023-12-30T09:40:10.018Z,18.98
2023-12-30T09:41:09.957Z,18.95
2023-12-30T09:42:09.938Z,18.96
2023-12-30T09:43:09.977Z,18.95
2023-12-30T09:44:09.903Z,18.96
2023-12-30T09:45:09.875Z,18.96
2023-12-30T09:46:09.928Z,18.96
2023-12-30T09:47:09.928Z,18.96
2023-12-30T09:48:09.920Z,18.96
2023-12-30T09:49:09.896Z,18.96
2023-12-30T09:50:09.826Z,18.96
2023-12-30T09:51:09.827Z,18.98
2023-12-30T09:52:09.863Z,18.96
2023-12-30T09:53:09.796Z,18.96
2023-12-30T09:54:09.784Z,18.96
2023-12-30T09:55:09.828Z,18.96
2023-12-30T09:56:09.774Z,18.96
2023-12-30T09:57:09.769Z,18.98
2023-12-30T09:58:09.791Z,18.96
2023-12-30T09:59:09.720Z,18.96
2023-12-30T10:00:09.720Z,18.96
2023-12-30T10:01:09.781Z,18.95
2023-12-30T10:02:09.751Z,18.98
2023-12-30T10:03:09.721Z,18.96
2023-12-30T10:04:09.840Z,18.96
2023-12-30T10:05:09.846Z,18.96
2023-12-30T10:06:09.646Z,18.96
2023-12-30T10:07:09.704Z,18.96
2023-12-30T10:08:09.626Z,18.96
2023-12-30T10:09:09.624Z,18.95
2023-12-30T10:10:09.681Z,18.96
2023-12-30T10:11:09.740Z,18.96
2023-12-30T10:12:09.579Z,18.98
2023-12-30T10:13:12.844Z,18.96
2023-12-30T10:14:09.574Z,18.96
2023-12-30T10:15:09.587Z,18.95
2023-12-30T10:16:09.574Z,18.96
2023-12-30T10:17:09.518Z,18.96
2023-12-30T10:18:09.734Z,18.98
2023-12-30T10:19:09.586Z,18.96
2023-12-30T10:20:11.575Z,18.95
2023-12-30T10:21:09.515Z,18.96
2023-12-30T10:22:09.491Z,18.96
2023-12-30T10:23:09.452Z,18.95
2023-12-30T10:24:09.444Z,18.95
2023-12-30T10:25:09.482Z,18.98
2023-12-30T10:26:09.418Z,18.95
2023-12-30T10:27:09.438Z,18.95
2023-12-30T10:28:09.486Z,18.96
2023-12-30T10:29:09.506Z,18.95
2023-12-30T10:30:09.434Z,18.96
2023-12-30T10:31:09.456Z,18.96
2023-12-30T10:32:09.382Z,18.95
2023-12-30T10:33:09.636Z,18.96
2023-12-30T10:34:09.521Z,18.95
2023-12-30T10:35:09.319Z,18.96
2023-12-30T10:36:09.309Z,18.96
2023-12-30T10:37:09.408Z,18.96
2023-12-30T10:38:09.312Z,18.95
2023-12-30T10:39:09.273Z,18.96
2023-12-30T10:40:09.295Z,18.96
2023-12-30T10:41:09.287Z,18.95
2023-12-30T10:42:09.243Z,18.96
2023-12-30T10:43:10.124Z,18.95
2023-12-30T10:44:09.223Z,18.95
2023-12-30T10:45:09.330Z,18.96
2023-12-30T10:46:09.250Z,18.95
2023-12-30T10:47:09.209Z,18.95
2023-12-30T10:48:09.797Z,18.95
2023-12-30T10:49:09.312Z,18.95
2023-12-30T10:50:09.417Z,18.96
2023-12-30T10:51:09.151Z,18.95
2023-12-30T10:52:09.253Z,18.96
2023-12-30T10:53:09.170Z,18.95
2023-12-30T10:54:09.128Z,18.95
2023-12-30T10:55:09.120Z,18.96
2023-12-30T10:56:09.084Z,18.96
2023-12-30T10:57:09.072Z,18.96
2023-12-30T10:58:09.122Z,18.95
2023-12-30T10:59:09.175Z,18.95
2023-12-30T11:00:09.044Z,18.96
2023-12-30T11:01:09.279Z,18.95
2023-12-30T11:02:09.066Z,18.95
2023-12-30T11:03:09.076Z,18.96
2023-12-30T11:04:09.077Z,18.95
2023-12-30T11:05:09.165Z,18.95
2023-12-30T11:06:09.113Z,18.95
2023-12-30T11:07:09.025Z,18.96
2023-12-30T11:08:09.006Z,18.96
2023-12-30T11:09:08.935Z,18.95
2023-12-30T11:10:08.983Z,18.93
2023-12-30T11:11:08.925Z,18.95
2023-12-30T11:12:08.914Z,18.95
2023-12-30T11:13:09.400Z,18.93
2023-12-30T11:14:08.916Z,18.93
2023-12-30T11:15:08.877Z,18.95
2023-12-30T11:16:08.893Z,18.95
2023-12-30T11:17:09.018Z,18.95
2023-12-30T11:18:08.969Z,18.95
2023-12-30T11:19:08.894Z,18.95
2023-12-30T11:20:08.857Z,18.95
2023-12-30T11:21:08.876Z,18.93
2023-12-30T11:22:08.848Z,18.95
2023-12-30T11:23:08.810Z,18.95
2023-12-30T11:24:08.803Z,18.95
2023-12-30T11:25:08.825Z,18.95
2023-12-30T11:26:08.751Z,18.95
2023-12-30T11:27:08.736Z,18.93
2023-12-30T11:28:08.779Z,18.95
2023-12-30T11:29:08.734Z,18.95
2023-12-30T11:30:08.775Z,18.95
2023-12-30T11:31:08.806Z,18.95
2023-12-30T11:32:08.708Z,18.95
2023-12-30T11:33:08.975Z,18.92
2023-12-30T11:34:08.757Z,18.95
2023-12-30T11:35:08.676Z,18.93
2023-12-30T11:36:08.658Z,18.93
2023-12-30T11:37:08.673Z,18.93
2023-12-30T11:38:08.616Z,18.95
2023-12-30T11:39:08.642Z,18.95
2023-12-30T11:40:08.616Z,18.95
2023-12-30T11:41:08.589Z,18.93
2023-12-30T11:42:08.596Z,18.96
2023-12-30T11:43:08.778Z,18.93
2023-12-30T11:44:08.586Z,18.95
2023-12-30T11:45:08.548Z,18.95
2023-12-30T11:46:08.594Z,18.96
2023-12-30T11:47:08.592Z,18.95
2023-12-30T11:48:08.654Z,18.93
2023-12-30T11:49:08.956Z,18.95
2023-12-30T11:50:10.701Z,18.93
2023-12-30T11:51:08.474Z,18.93
2023-12-30T11:52:08.475Z,18.95
2023-12-30T11:53:08.458Z,18.93
2023-12-30T11:54:08.470Z,18.93
2023-12-30T11:55:08.471Z,18.93
2023-12-30T11:56:09.136Z,18.95
2023-12-30T11:57:08.496Z,18.93
2023-12-30T11:58:08.424Z,18.93
2023-12-30T11:59:08.388Z,18.92
2023-12-30T12:00:08.375Z,18.95
2023-12-30T12:01:08.480Z,18.93
2023-12-30T12:02:08.464Z,18.93
2023-12-30T12:03:08.341Z,18.93
2023-12-30T12:04:08.457Z,18.93
2023-12-30T12:05:08.517Z,18.95
2023-12-30T12:06:08.372Z,18.93
2023-12-30T12:07:08.395Z,18.93
2023-12-30T12:08:08.285Z,18.93
2023-12-30T12:09:08.277Z,18.92
2023-12-30T12:10:08.281Z,18.93
2023-12-30T12:11:08.430Z,18.95
2023-12-30T12:12:08.257Z,18.93
2023-12-30T12:13:08.260Z,18.93
2023-12-30T12:14:08.226Z,18.93
2023-12-30T12:15:08.216Z,18.92
2023-12-30T12:16:08.245Z,18.93
2023-12-30T12:17:08.290Z,18.93
2023-12-30T12:18:08.280Z,18.93
2023-12-30T12:19:08.334Z,18.93
2023-12-30T12:20:08.159Z,18.92
2023-12-30T12:21:08.291Z,18.93
2023-12-30T12:22:08.178Z,18.93
2023-12-30T12:23:08.163Z,18.93
2023-12-30T12:24:08.123Z,18.93
2023-12-30T12:25:08.146Z,18.93
2023-12-30T12:26:08.133Z,18.92
2023-12-30T12:27:08.089Z,18.93
2023-12-30T12:28:08.116Z,18.93
2023-12-30T12:29:08.055Z,18.95
2023-12-30T12:30:08.056Z,18.93
2023-12-30T12:31:08.224Z,18.92
2023-12-30T12:32:08.046Z,18.92
2023-12-30T12:33:08.083Z,18.93
2023-12-30T12:34:08.093Z,18.92
2023-12-30T12:35:08.156Z,18.92
2023-12-30T12:36:07.975Z,18.93
2023-12-30T12:37:08.130Z,18.92
2023-12-30T12:38:07.973Z,18.93
2023-12-30T12:39:07.943Z,18.92
2023-12-30T12:40:08.092Z,18.92
2023-12-30T12:41:07.921Z,18.92
2023-12-30T12:42:15.057Z,18.92
2023-12-30T12:43:08.976Z,18.93
2023-12-30T12:44:07.908Z,18.92
2023-12-30T12:45:07.945Z,18.92
2023-12-30T12:46:07.880Z,18.93
2023-12-30T12:47:07.851Z,18.92
2023-12-30T12:48:08.126Z,18.92
2023-12-30T12:49:08.010Z,18.93
2023-12-30T12:50:07.819Z,18.92
2023-12-30T12:51:07.811Z,18.93
2023-12-30T12:52:07.829Z,18.92